Time;durP1;ratioP1;P1;durP2;ratioP2;P2;SDS_P1;SDS_P2;PMS_P1;PMS_P2;Temp;Humidity;BMP_temperature;BMP_pressure;BME280_temperature;BME280_humidity;BME280_pressure;Samples;Min_cycle;Max_cycle;Signal;HPM_P1;HPM_P2
2022/10/23 00:00:12;;;;;;;3.95;3.45;;;;;;;22.52;66.86;99324.28;2077131;28;21245;-52
2022/10/23 00:01:15;;;;;;;5.57;3.58;;;;;;;22.52;66.83;99322.41;2080817;28;20045;-49
2022/10/23 00:02:17;;;;;;;11.43;4.00;;;;;;;22.50;66.95;99321.78;2080051;28;20711;-52
2022/10/23 00:03:17;;;;;;;5.25;3.67;;;;;;;22.50;66.98;99321.78;2081633;28;20098;-48
2022/10/23 00:04:21;;;;;;;8.38;3.78;;;;;;;22.52;66.77;99322.41;2077447;28;20049;-50
2022/10/23 00:05:22;;;;;;;4.13;3.17;;;;;;;22.52;66.71;99318.88;2077454;28;20045;-52
2022/10/23 00:06:25;;;;;;;4.65;4.05;;;;;;;22.52;66.91;99319.69;2078205;28;20114;-52
2022/10/23 00:07:26;;;;;;;5.82;4.20;;;;;;;22.51;66.86;99318.03;2076159;28;20053;-52
2022/10/23 00:08:28;;;;;;;4.50;3.25;;;;;;;22.51;66.90;99315.34;2076912;28;20049;-50
2022/10/23 00:09:30;;;;;;;4.20;2.95;;;;;;;22.52;67.00;99316.16;2077554;28;20565;-51
2022/10/23 00:10:31;;;;;;;4.78;3.72;;;;;;;22.51;67.34;99315.34;2081575;28;20106;-53
2022/10/23 00:11:34;;;;;;;4.22;3.30;;;;;;;22.52;67.06;99318.88;2079807;28;20084;-52
2022/10/23 00:12:35;;;;;;;6.10;4.13;;;;;;;22.51;67.25;99323.44;2076660;28;20563;-52
2022/10/23 00:13:39;;;;;;;8.52;3.63;;;;;;;22.50;67.23;99326.34;2075701;28;20063;-52
2022/10/23 00:14:39;;;;;;;4.20;3.03;;;;;;;22.53;67.15;99326.75;2077588;28;20049;-53
2022/10/23 00:15:41;;;;;;;4.18;3.40;;;;;;;22.53;67.25;99325.94;2078916;28;20049;-53
2022/10/23 00:16:42;;;;;;;5.03;3.50;;;;;;;22.52;67.20;99329.69;2079352;28;20060;-52
2022/10/23 00:17:44;;;;;;;5.68;3.55;;;;;;;22.52;67.33;99327.81;2077687;28;20180;-53
2022/10/23 00:18:45;;;;;;;4.97;3.50;;;;;;;22.53;67.35;99342.97;2079834;28;20088;-50
2022/10/23 00:19:47;;;;;;;5.35;3.63;;;;;;;22.53;67.05;99331.34;2078169;28;20169;-50
2022/10/23 00:20:47;;;;;;;5.38;3.40;;;;;;;22.53;67.28;99328.63;2078204;28;20054;-51
2022/10/23 00:21:49;;;;;;;4.15;3.47;;;;;;;22.51;67.27;99333.41;2076979;28;20111;-49
2022/10/23 00:22:50;;;;;;;5.50;3.65;;;;;;;22.52;67.35;99326.97;2075929;28;20103;-51
2022/10/23 00:23:52;;;;;;;6.55;4.43;;;;;;;22.51;67.31;99328.84;2079584;28;20048;-49
2022/10/23 00:24:53;;;;;;;5.18;3.65;;;;;;;22.51;67.37;99323.44;2076106;28;20825;-50
2022/10/23 00:25:55;;;;;;;6.25;4.60;;;;;;;22.50;67.33;99327.19;2080698;28;20049;-52
2022/10/23 00:26:56;;;;;;;8.63;4.20;;;;;;;22.51;67.41;99328.84;2077496;28;20065;-53
2022/10/23 00:27:58;;;;;;;7.13;3.97;;;;;;;22.50;67.45;99327.19;2079039;28;20049;-52
2022/10/23 00:29:00;;;;;;;4.05;3.65;;;;;;;22.51;67.38;99331.56;2078149;28;20049;-51
2022/10/23 00:30:03;;;;;;;5.95;3.35;;;;;;;22.51;67.50;99322.59;2078165;28;20064;-51
2022/10/23 00:31:05;;;;;;;6.22;3.83;;;;;;;22.51;67.47;99325.28;2081061;28;20045;-50
2022/10/23 00:32:06;;;;;;;4.63;3.50;;;;;;;22.52;67.46;99326.97;2080577;28;20105;-51
2022/10/23 00:33:08;;;;;;;7.55;3.70;;;;;;;22.51;67.47;99325.28;2078651;28;20641;-51
2022/10/23 00:34:09;;;;;;;4.15;3.45;;;;;;;22.52;67.37;99321.56;2081142;28;20041;-50
2022/10/23 00:35:10;;;;;;;6.05;4.03;;;;;;;22.50;67.48;99321.78;2082190;28;20132;-53
2022/10/23 00:36:15;;;;;;;5.15;3.55;;;;;;;22.53;67.34;99317.81;2082533;28;20041;-54
2022/10/23 00:37:16;;;;;;;4.55;3.72;;;;;;;22.50;67.52;99327.19;2083427;28;20057;-51
2022/10/23 00:38:17;;;;;;;4.93;3.67;;;;;;;22.50;67.58;99326.34;2078215;28;20049;-52
2022/10/23 00:39:19;;;;;;;7.20;4.03;;;;;;;22.50;67.48;99321.78;2072377;28;20189;-52
2022/10/23 00:40:20;;;;;;;5.32;3.47;;;;;;;22.50;67.37;99321.78;2073399;28;20138;-53
2022/10/23 00:41:26;;;;;;;5.97;3.90;;;;;;;22.53;67.27;99325.94;2075672;28;20057;-56
2022/10/23 00:42:27;;;;;;;4.15;3.55;;;;;;;22.50;67.37;99321.78;2074939;28;20045;-52
2022/10/23 00:43:31;;;;;;;6.22;4.45;;;;;;;22.51;67.29;99314.47;2074563;28;20485;-54
2022/10/23 00:45:10;;;;;;;4.45;3.53;;;;;;;22.46;67.28;99309.75;2076511;28;20280;-53
2022/10/23 00:46:11;;;;;;;6.07;4.07;;;;;;;22.46;67.36;99307.03;2068317;28;20049;-54
2022/10/23 00:47:13;;;;;;;7.82;4.13;;;;;;;22.47;67.35;99310.56;2072949;28;20601;-53
2022/10/23 00:48:15;;;;;;;5.13;4.15;;;;;;;22.47;67.35;99308.69;2067894;28;20045;-52
2022/10/23 00:49:19;;;;;;;6.05;3.20;;;;;;;22.47;67.49;99308.69;2069191;28;20079;-53
2022/10/23 00:50:22;;;;;;;4.95;3.45;;;;;;;22.49;67.32;99314.72;2070066;28;20057;-56
2022/10/23 00:51:25;;;;;;;5.22;3.15;;;;;;;22.51;67.29;99318.03;2070048;28;20049;-51
2022/10/23 00:52:27;;;;;;;4.47;3.40;;;;;;;22.48;67.24;99315.78;2071544;28;20969;-50
2022/10/23 00:53:29;;;;;;;5.75;3.63;;;;;;;22.49;67.38;99314.72;2068840;28;20228;-51
2022/10/23 00:54:33;;;;;;;5.30;3.33;;;;;;;22.48;67.30;99323.88;2069972;28;20049;-54
2022/10/23 00:55:37;;;;;;;6.60;3.72;;;;;;;22.50;67.31;99320.94;2070604;28;20100;-54
2022/10/23 00:56:40;;;;;;;7.47;3.63;;;;;;;22.49;67.53;99320.13;2071903;28;20082;-52
2022/10/23 00:57:45;;;;;;;5.90;3.67;;;;;;;22.49;67.23;99314.72;2073918;28;20053;-51
2022/10/23 00:58:45;;;;;;;3.28;2.97;;;;;;;22.51;67.35;99323.44;2070390;28;20053;-52
2022/10/23 00:59:47;;;;;;;2.95;2.67;;;;;;;22.49;67.20;99320.13;2069097;28;20041;-53
2022/10/23 01:00:52;;;;;;;5.53;3.30;;;;;;;22.49;67.42;99320.13;2069051;28;20059;-53
2022/10/23 01:01:54;;;;;;;7.47;4.75;;;;;;;22.49;67.45;99322.81;2069000;28;20096;-51
2022/10/23 01:02:56;;;;;;;4.78;3.53;;;;;;;22.48;67.28;99318.47;2067513;28;21015;-53
2022/10/23 01:03:58;;;;;;;4.30;3.15;;;;;;;22.48;67.21;99321.19;2069288;28;20119;-51
2022/10/23 01:04:59;;;;;;;7.95;3.72;;;;;;;22.50;67.33;99326.34;2069640;28;20106;-53
2022/10/23 01:06:09;;;;;;;7.97;3.17;;;;;;;22.52;67.10;99329.69;2073577;28;20382;-51
2022/10/23 01:07:17;;;;;;;5.47;3.17;;;;;;;22.48;67.23;99323.03;2071510;28;20084;-51
2022/10/23 01:08:28;;;;;;;3.85;2.92;;;;;;;22.49;67.24;99322.00;2067878;28;20136;-55
2022/10/23 01:09:36;;;;;;;3.95;2.97;;;;;;;22.48;67.36;99323.88;2067858;28;20049;-52
2022/10/23 01:10:44;;;;;;;5.18;3.83;;;;;;;22.49;67.12;99328.22;2069126;28;20054;-51
2022/10/23 01:11:51;;;;;;;4.28;3.17;;;;;;;22.51;67.11;99326.16;2070488;28;20483;-53
2022/10/23 01:13:02;;;;;;;3.97;3.05;;;;;;;22.50;67.37;99320.94;2068883;28;20045;-50
2022/10/23 01:14:13;;;;;;;4.85;3.15;;;;;;;22.49;67.23;99322.81;2075955;28;20073;-54
2022/10/23 01:15:22;;;;;;;5.65;3.22;;;;;;;22.49;67.12;99322.81;2074937;28;20061;-52
2022/10/23 01:16:32;;;;;;;8.35;4.15;;;;;;;22.49;67.09;99324.69;2067858;28;20895;-52
2022/10/23 01:17:37;;;;;;;12.82;3.72;;;;;;;22.48;67.34;99323.88;2068546;28;20084;-53
2022/10/23 01:18:43;;;;;;;3.13;2.83;;;;;;;22.50;67.42;99321.78;2071979;28;20411;-53
2022/10/23 01:19:56;;;;;;;4.25;3.63;;;;;;;22.49;67.25;99328.22;2070701;28;20056;-54
2022/10/23 01:21:03;;;;;;;5.22;3.63;;;;;;;22.50;67.07;99329.88;2067610;28;20185;-52
2022/10/23 01:22:22;;;;;;;4.40;3.03;;;;;;;22.49;67.03;99330.94;2070519;28;20050;-53
2022/10/23 01:23:59;;;;;;;5.78;3.15;;;;;;;22.49;67.24;99324.69;2070589;28;20053;-53
2022/10/23 01:25:09;;;;;;;7.05;3.92;;;;;;;22.50;66.98;99331.75;2065243;28;20053;-53
2022/10/23 01:26:40;;;;;;;5.40;3.72;;;;;;;22.44;67.17;99321.81;2066576;28;20685;-50
2022/10/23 01:27:44;;;;;;;;;;;;;;;22.36;67.43;99322.84;2073839;28;20049;-51
2022/10/23 01:28:50;;;;;;;6.78;3.70;;;;;;;22.41;67.37;99320.34;2072650;28;19929;-52
2022/10/23 01:30:02;;;;;;;4.72;3.65;;;;;;;22.45;67.21;99320.75;2069589;28;20056;-53
2022/10/23 01:31:11;;;;;;;5.28;3.40;;;;;;;22.44;67.46;99319.91;2069679;28;22393;-54
2022/10/23 01:32:16;;;;;;;5.65;3.40;;;;;;;22.50;67.12;99326.34;2067616;28;20040;-49
2022/10/23 01:33:24;;;;;;;4.00;3.42;;;;;;;22.48;67.28;99326.59;2070676;28;20045;-54
2022/10/23 01:34:31;;;;;;;5.78;2.90;;;;;;;22.47;67.15;99327.59;2068194;28;20115;-53
2022/10/23 01:35:37;;;;;;;5.00;3.65;;;;;;;22.50;67.32;99326.34;2068161;28;20041;-53
2022/10/23 01:36:41;;;;;;;9.38;3.67;;;;;;;22.49;66.93;99332.81;2069445;28;20053;-54
2022/10/23 01:37:47;;;;;;;5.18;4.07;;;;;;;22.49;67.15;99325.53;2066192;28;20419;-52
2022/10/23 01:38:54;;;;;;;4.22;2.90;;;;;;;22.47;66.86;99324.91;2069903;28;22440;-52
2022/10/23 01:40:02;;;;;;;4.85;3.42;;;;;;;22.46;67.18;99319.72;2069753;28;20049;-51
2022/10/23 01:41:10;;;;;;;4.30;3.33;;;;;;;22.45;67.21;99321.56;2068923;28;20045;-52
2022/10/23 01:42:15;;;;;;;5.53;2.92;;;;;;;22.43;67.32;99320.97;2069056;28;20049;-50
2022/10/23 01:43:21;;;;;;;5.18;3.65;;;;;;;22.42;67.30;99313.06;2064950;28;20052;-48
2022/10/23 01:44:27;;;;;;;6.72;3.22;;;;;;;22.44;67.27;99313.69;2073633;28;20420;-52
2022/10/23 01:45:33;;;;;;;4.70;3.67;;;;;;;22.46;67.21;99298.94;2069701;28;20664;-51
2022/10/23 01:46:36;;;;;;;8.27;4.07;;;;;;;22.47;67.16;99308.69;2069706;28;20056;-52
2022/10/23 01:47:38;;;;;;;4.72;2.55;;;;;;;22.44;67.12;99301.00;2068884;28;20053;-52
2022/10/23 01:48:45;;;;;;;4.55;3.05;;;;;;;22.50;67.33;99310.13;2068796;28;20144;-47
2022/10/23 01:49:47;;;;;;;3.15;2.85;;;;;;;22.51;66.85;99307.22;2069478;28;20118;-50
2022/10/23 01:50:51;;;;;;;3.67;3.25;;;;;;;22.55;66.84;99304.09;2069118;28;20668;-50
2022/10/23 01:51:55;;;;;;;5.78;2.88;;;;;;;22.52;66.94;99306.19;2067965;28;20131;-50
2022/10/23 01:52:57;;;;;;;3.75;2.80;;;;;;;22.50;66.95;99299.31;2069876;28;20064;-53
2022/10/23 01:53:59;;;;;;;6.68;3.67;;;;;;;22.52;67.00;99302.66;2070164;28;20060;-52
2022/10/23 01:55:01;;;;;;;4.25;3.67;;;;;;;22.51;66.89;99303.66;2068356;28;20053;-53
2022/10/23 01:56:06;;;;;;;7.90;3.80;;;;;;;22.52;66.93;99308.06;2069765;28;20056;-53
2022/10/23 01:57:11;;;;;;;3.85;3.30;;;;;;;22.53;66.82;99299.72;2070104;28;20144;-51
2022/10/23 01:58:14;;;;;;;5.72;3.03;;;;;;;22.53;67.00;99305.13;2067924;28;20045;-48
2022/10/23 01:59:22;;;;;;;5.78;3.10;;;;;;;22.55;66.90;99304.09;2066004;28;20078;-52
2022/10/23 02:00:24;;;;;;;3.25;2.80;;;;;;;22.53;66.98;99310.53;2072419;28;20056;-53
2022/10/23 02:01:28;;;;;;;8.55;3.60;;;;;;;22.52;66.69;99308.88;2067459;28;20050;-53
2022/10/23 02:02:33;;;;;;;4.15;3.65;;;;;;;22.54;66.96;99303.28;2069224;28;20079;-52
2022/10/23 02:03:36;;;;;;;4.80;3.50;;;;;;;22.52;66.95;99308.06;2069605;28;20049;-48
2022/10/23 02:04:42;;;;;;;3.88;3.08;;;;;;;22.51;66.88;99300.97;2070351;28;20049;-53
2022/10/23 02:05:43;;;;;;;4.50;3.13;;;;;;;22.51;66.85;99303.66;2066448;28;20100;-54
2022/10/23 02:06:45;;;;;;;4.65;3.28;;;;;;;22.52;67.01;99308.88;2065599;28;20049;-50
2022/10/23 02:07:46;;;;;;;5.97;3.45;;;;;;;22.52;67.12;99308.88;2068307;28;20110;-51
2022/10/23 02:08:48;;;;;;;5.72;3.17;;;;;;;22.52;67.03;99311.59;2070060;28;20057;-55
2022/10/23 02:09:49;;;;;;;6.82;3.65;;;;;;;22.52;66.93;99314.28;2068068;28;20111;-52
2022/10/23 02:11:02;;;;;;;4.85;3.58;;;;;;;22.52;66.97;99314.28;2070049;28;20094;-52
2022/10/23 02:12:07;;;;;;;3.75;3.35;;;;;;;22.51;67.04;99309.94;2070044;28;20049;-50
2022/10/23 02:13:16;;;;;;;3.42;3.13;;;;;;;22.52;67.08;99308.06;2068301;28;20077;-51
2022/10/23 02:14:28;;;;;;;6.00;3.03;;;;;;;22.51;67.06;99312.63;2068160;28;20165;-53
2022/10/23 02:15:34;;;;;;;6.20;3.28;;;;;;;22.50;67.13;99307.44;2073068;28;20041;-51
2022/10/23 02:16:41;;;;;;;5.28;3.15;;;;;;;22.52;67.22;99306.19;2068594;28;20062;-51
2022/10/23 02:17:51;;;;;;;8.20;3.70;;;;;;;22.50;67.19;99305.56;2070360;28;20061;-51
2022/10/23 02:18:59;;;;;;;4.13;3.35;;;;;;;22.50;67.22;99300.16;2074042;28;21456;-50
2022/10/23 02:20:08;;;;;;;4.25;2.78;;;;;;;22.51;67.20;99296.41;2080515;28;20049;-48
2022/10/23 02:21:12;;;;;;;6.55;3.60;;;;;;;22.51;67.19;99299.13;2071944;28;20057;-53
2022/10/23 02:22:21;;;;;;;3.92;3.53;;;;;;;22.49;67.08;99297.66;2071882;28;20049;-53
2022/10/23 02:23:31;;;;;;;6.68;3.58;;;;;;;22.50;67.11;99305.56;2067842;28;20759;-53
2022/10/23 02:24:36;;;;;;;5.50;3.38;;;;;;;22.47;67.25;99303.28;2071872;28;20279;-50
2022/10/23 02:25:44;;;;;;;4.68;3.33;;;;;;;22.49;67.25;99303.91;2070725;28;20042;-53
2022/10/23 02:26:52;;;;;;;5.45;3.42;;;;;;;22.48;67.58;99307.66;2071686;28;20138;-52
2022/10/23 02:27:57;;;;;;;4.95;3.28;;;;;;;22.47;67.64;99311.38;2070649;28;20772;-53
2022/10/23 02:29:04;;;;;;;4.10;2.90;;;;;;;22.50;67.55;99307.44;2072111;28;20054;-50
2022/10/23 02:30:10;;;;;;;4.25;3.10;;;;;;;22.49;67.41;99303.91;2072457;28;20384;-51
2022/10/23 02:31:17;;;;;;;7.22;3.10;;;;;;;22.46;67.60;99298.09;2073332;28;20648;-53
2022/10/23 02:32:21;;;;;;;3.95;3.53;;;;;;;22.46;67.57;99293.53;2078741;28;20545;-49
2022/10/23 02:33:23;;;;;;;5.60;3.00;;;;;;;22.48;67.40;99296.84;2071782;28;20052;-51
2022/10/23 02:34:24;;;;;;;4.40;3.70;;;;;;;22.45;67.53;99297.25;2071204;28;20053;-52
2022/10/23 02:35:26;;;;;;;6.25;3.70;;;;;;;22.43;67.44;99299.34;2068376;28;20068;-52
2022/10/23 02:36:27;;;;;;;7.47;3.40;;;;;;;22.45;67.37;99297.25;2068451;28;20671;-54
2022/10/23 02:37:29;;;;;;;6.28;3.92;;;;;;;22.46;67.43;99306.22;2071794;28;20049;-49
2022/10/23 02:38:33;;;;;;;5.70;3.53;;;;;;;22.49;67.50;99303.06;2072018;28;20052;-52
2022/10/23 02:39:35;;;;;;;3.53;3.03;;;;;;;22.50;67.35;99310.13;2073686;28;20180;-51
2022/10/23 02:40:40;;;;;;;9.68;4.25;;;;;;;22.48;67.38;99310.38;2069307;28;20041;-50
2022/10/23 02:41:46;;;;;;;5.68;3.20;;;;;;;22.48;67.31;99310.38;2067768;28;20073;-53
2022/10/23 02:42:54;;;;;;;4.82;3.65;;;;;;;22.48;67.31;99313.06;2069985;28;20527;-48
2022/10/23 02:44:07;;;;;;;7.10;3.33;;;;;;;22.47;67.36;99315.97;2070746;28;20472;-51
2022/10/23 02:45:19;;;;;;;5.75;3.13;;;;;;;22.45;67.51;99321.56;2068245;28;20037;-52
2022/10/23 02:46:27;;;;;;;4.68;3.30;;;;;;;22.45;67.52;99318.03;2070369;28;20084;-53
2022/10/23 02:47:40;;;;;;;7.45;3.03;;;;;;;22.45;67.48;99309.94;2070366;28;20598;-51
2022/10/23 02:48:49;;;;;;;10.07;3.38;;;;;;;22.47;67.41;99322.19;2070113;28;20094;-53
2022/10/23 02:50:00;;;;;;;4.35;2.95;;;;;;;22.47;67.25;99318.66;2068426;28;20053;-49
2022/10/23 02:51:10;;;;;;;8.10;3.00;;;;;;;22.47;67.38;99307.84;2068168;28;23136;-52
2022/10/23 02:52:19;;;;;;;12.50;2.80;;;;;;;22.47;67.31;99310.56;2071911;28;20040;-53
2022/10/23 02:53:26;;;;;;;3.95;3.33;;;;;;;22.48;67.22;99301.41;2068854;28;20287;-48
2022/10/23 02:54:48;;;;;;;3.65;3.35;;;;;;;22.44;67.21;99311.00;2071736;28;20072;-48
2022/10/23 02:55:57;;;;;;;;;;;;;;;22.35;67.56;99304.97;2071811;28;20602;-51
2022/10/23 02:57:04;;;;;;;5.28;3.35;;;;;;;22.38;67.69;99312.66;2069310;28;19939;-51
2022/10/23 02:58:09;;;;;;;4.90;3.63;;;;;;;22.42;67.17;99313.06;2072366;28;20094;-53
2022/10/23 02:59:19;;;;;;;4.78;3.47;;;;;;;22.46;67.33;99304.34;2069666;28;20038;-52
2022/10/23 03:00:22;;;;;;;3.45;3.03;;;;;;;22.44;67.33;99306.41;2070747;28;20521;-53
2022/10/23 03:01:29;;;;;;;7.85;2.70;;;;;;;22.47;67.32;99305.97;2067269;28;20127;-48
2022/10/23 03:02:35;;;;;;;6.32;3.53;;;;;;;22.49;67.25;99305.78;2074250;28;20450;-48
2022/10/23 03:03:42;;;;;;;5.40;3.10;;;;;;;22.50;67.04;99307.44;2073034;28;20095;-52
2022/10/23 03:04:44;;;;;;;3.22;2.45;;;;;;;22.50;67.05;99313.66;2071046;28;20037;-53
2022/10/23 03:05:46;;;;;;;6.30;2.58;;;;;;;22.52;67.00;99308.06;2070697;28;20045;-50
2022/10/23 03:06:49;;;;;;;6.07;3.03;;;;;;;22.53;66.92;99315.94;2070452;28;20053;-54
2022/10/23 03:07:52;;;;;;;3.75;3.15;;;;;;;22.52;67.10;99319.69;2070909;28;20062;-52
2022/10/23 03:08:58;;;;;;;6.35;4.97;;;;;;;22.51;66.95;99312.63;2070717;28;20529;-53
2022/10/23 03:09:59;;;;;;;5.45;3.38;;;;;;;22.51;67.17;99317.19;2068110;28;20068;-49
2022/10/23 03:11:00;;;;;;;4.80;3.45;;;;;;;22.52;66.95;99319.69;2058244;28;20053;-53
2022/10/23 03:12:01;;;;;;;6.30;3.40;;;;;;;22.52;67.39;99313.47;2067016;28;20539;-49
2022/10/23 03:13:03;;;;;;;6.00;3.40;;;;;;;22.50;67.21;99313.66;2072696;28;20130;-54
2022/10/23 03:14:05;;;;;;;4.53;3.50;;;;;;;22.50;67.06;99310.97;2072383;28;20052;-52
2022/10/23 03:15:07;;;;;;;3.35;3.05;;;;;;;22.51;66.92;99307.22;2068996;28;20076;-53
2022/10/23 03:16:11;;;;;;;3.47;3.17;;;;;;;22.51;67.14;99301.81;2074364;28;20652;-50
2022/10/23 03:17:11;;;;;;;5.85;3.10;;;;;;;22.51;67.12;99311.78;2073495;28;20045;-50
2022/10/23 03:18:13;;;;;;;9.85;3.75;;;;;;;22.52;66.94;99306.19;2075497;28;20046;-51
2022/10/23 03:19:14;;;;;;;4.72;3.00;;;;;;;22.49;67.02;99309.31;2066820;28;20141;-53
2022/10/23 03:20:16;;;;;;;4.35;3.10;;;;;;;22.48;67.31;99310.38;2068690;28;20422;-54
2022/10/23 03:21:17;;;;;;;3.70;3.35;;;;;;;22.51;67.00;99309.94;2072277;28;20045;-52
2022/10/23 03:22:19;;;;;;;4.82;3.28;;;;;;;22.51;66.98;99323.44;2070494;28;20422;-48
2022/10/23 03:23:19;;;;;;;4.38;2.80;;;;;;;22.49;67.12;99320.13;2070532;28;20045;-48
2022/10/23 03:24:21;;;;;;;3.58;3.17;;;;;;;22.50;67.08;99315.53;2071434;28;20053;-52
2022/10/23 03:25:22;;;;;;;4.45;3.63;;;;;;;22.50;66.93;99313.66;2069018;28;20095;-53
2022/10/23 03:26:24;;;;;;;5.95;3.63;;;;;;;22.50;67.08;99308.25;2071643;28;20458;-53
2022/10/23 03:27:25;;;;;;;3.33;2.80;;;;;;;22.52;66.94;99310.75;2069061;28;20049;-51
2022/10/23 03:28:26;;;;;;;3.72;2.75;;;;;;;22.52;67.00;99308.06;2069891;28;22448;-53
2022/10/23 03:29:27;;;;;;;3.45;2.90;;;;;;;22.51;66.98;99311.78;2065290;28;20045;-52
2022/10/23 03:30:29;;;;;;;5.30;2.70;;;;;;;22.52;66.93;99317.00;2068169;28;20053;-52
2022/10/23 03:31:31;;;;;;;3.78;3.25;;;;;;;22.50;67.05;99321.78;2069474;28;20056;-52
2022/10/23 03:32:33;;;;;;;4.03;3.20;;;;;;;22.52;66.89;99322.41;2070520;28;20124;-51
2022/10/23 03:33:34;;;;;;;4.25;3.30;;;;;;;22.51;66.82;99328.84;2069646;28;20613;-50
2022/10/23 03:34:36;;;;;;;4.35;3.15;;;;;;;22.52;66.82;99324.28;2071285;28;20048;-52
2022/10/23 03:35:36;;;;;;;2.47;2.28;;;;;;;22.52;66.81;99324.28;2067634;28;20523;-52
2022/10/23 03:36:38;;;;;;;4.38;3.50;;;;;;;22.50;66.97;99321.78;2066861;28;20045;-53
2022/10/23 03:37:39;;;;;;;4.35;3.03;;;;;;;22.51;66.86;99323.44;2069664;28;20041;-49
2022/10/23 03:38:41;;;;;;;8.63;2.92;;;;;;;22.51;66.96;99311.78;2070538;28;20451;-53
2022/10/23 03:39:42;;;;;;;6.18;3.15;;;;;;;22.53;66.80;99320.53;2071485;28;26791;-57
2022/10/23 03:40:44;;;;;;;6.15;3.22;;;;;;;22.51;66.85;99318.03;2067367;28;20045;-49
2022/10/23 03:41:44;;;;;;;4.35;2.88;;;;;;;22.50;66.84;99323.66;2068470;28;20059;-48
2022/10/23 03:42:46;;;;;;;5.70;3.80;;;;;;;22.52;66.90;99326.97;2069767;28;20948;-48
2022/10/23 03:43:47;;;;;;;3.65;3.05;;;;;;;22.52;66.84;99330.50;2069564;28;20057;-52
2022/10/23 03:44:49;;;;;;;4.57;2.97;;;;;;;22.50;66.77;99329.88;2067576;28;20523;-53
2022/10/23 03:45:50;;;;;;;3.30;3.00;;;;;;;22.52;66.78;99332.38;2068912;28;20053;-52
2022/10/23 03:46:55;;;;;;;4.22;3.13;;;;;;;22.51;66.85;99334.25;2069183;28;20049;-50
2022/10/23 03:47:55;;;;;;;6.45;3.45;;;;;;;22.52;66.75;99332.38;2070500;28;20534;-49
2022/10/23 03:48:58;;;;;;;5.03;3.30;;;;;;;22.52;66.55;99330.50;2071543;28;20049;-53
2022/10/23 03:50:00;;;;;;;4.93;3.97;;;;;;;22.53;66.72;99336.75;2069577;28;20053;-53
2022/10/23 03:51:01;;;;;;;3.30;3.00;;;;;;;22.53;66.35;99329.44;2072181;28;20059;-53
2022/10/23 03:52:02;;;;;;;5.35;3.95;;;;;;;22.52;66.69;99325.09;2068380;28;20067;-53
2022/10/23 03:53:03;;;;;;;4.32;3.13;;;;;;;22.53;66.59;99323.22;2072348;28;20895;-49
2022/10/23 03:54:06;;;;;;;4.22;3.20;;;;;;;22.53;66.49;99320.53;2069029;28;20112;-52
2022/10/23 03:55:07;;;;;;;3.55;2.90;;;;;;;22.52;66.68;99317.00;2071734;28;20091;-48
2022/10/23 03:56:09;;;;;;;3.80;3.15;;;;;;;22.52;66.62;99318.88;2068171;28;20068;-51
2022/10/23 03:57:10;;;;;;;3.75;2.83;;;;;;;22.52;66.71;99326.97;2071350;28;20053;-51
2022/10/23 03:58:12;;;;;;;3.33;2.88;;;;;;;22.53;66.58;99326.75;2070258;28;20068;-51
2022/10/23 03:59:13;;;;;;;4.57;3.28;;;;;;;22.54;66.45;99333.00;2069695;28;20046;-51
2022/10/23 04:01:34;;;;;;;5.80;3.33;;;;;;;22.52;66.72;99338.63;2066295;28;21657;-53
2022/10/23 04:02:36;;;;;;;6.20;3.38;;;;;;;22.52;66.60;99335.91;2071018;28;20485;-51
2022/10/23 04:03:38;;;;;;;4.57;3.47;;;;;;;22.53;66.54;99326.75;2072004;28;23112;-51
2022/10/23 04:04:39;;;;;;;4.18;3.72;;;;;;;22.52;66.64;99325.09;2073048;28;20123;-50
2022/10/23 04:05:41;;;;;;;5.13;3.63;;;;;;;22.51;66.45;99328.84;2066528;28;20050;-51
2022/10/23 04:06:42;;;;;;;3.30;2.90;;;;;;;22.51;66.61;99328.84;2069969;28;20049;-52
2022/10/23 04:07:44;;;;;;;3.10;2.83;;;;;;;22.51;66.61;99328.84;2071800;28;20084;-51
2022/10/23 04:08:45;;;;;;;2.97;2.67;;;;;;;22.52;66.75;99335.91;2071954;28;20061;-53
2022/10/23 04:09:46;;;;;;;4.63;3.03;;;;;;;22.53;66.67;99332.16;2066886;28;20148;-51
2022/10/23 04:10:47;;;;;;;6.50;3.42;;;;;;;22.52;66.57;99329.69;2069276;28;20107;-50
2022/10/23 04:11:49;;;;;;;4.85;3.13;;;;;;;22.51;66.68;99330.72;2071655;28;20053;-52
2022/10/23 04:12:50;;;;;;;3.90;2.92;;;;;;;22.51;66.49;99334.25;2072061;28;20463;-53
2022/10/23 04:13:52;;;;;;;4.80;2.97;;;;;;;22.52;66.68;99335.91;2075489;28;20160;-51
2022/10/23 04:14:52;;;;;;;8.63;2.85;;;;;;;22.47;66.73;99335.72;2077876;28;20049;-51
2022/10/23 04:15:54;;;;;;;3.55;3.25;;;;;;;22.50;66.90;99331.75;2067522;28;20194;-48
2022/10/23 04:16:55;;;;;;;4.85;3.10;;;;;;;22.51;66.60;99330.72;2068753;28;20114;-54
2022/10/23 04:17:58;;;;;;;3.85;3.25;;;;;;;22.51;66.55;99328.84;2071180;28;20503;-48
2022/10/23 04:18:59;;;;;;;3.53;3.17;;;;;;;22.51;66.71;99331.56;2068854;28;20082;-53
2022/10/23 04:20:00;;;;;;;5.65;3.40;;;;;;;22.50;66.42;99327.19;2070705;28;20540;-52
2022/10/23 04:21:02;;;;;;;5.72;3.67;;;;;;;22.51;66.72;99318.03;2068345;28;20041;-51
2022/10/23 04:22:04;;;;;;;6.20;3.08;;;;;;;22.50;66.40;99320.94;2071697;28;20040;-49
2022/10/23 04:23:05;;;;;;;3.90;3.22;;;;;;;22.50;66.63;99326.34;2072528;28;20046;-50
2022/10/23 04:24:07;;;;;;;3.00;2.72;;;;;;;22.50;66.57;99324.47;2068638;28;20056;-50
2022/10/23 04:25:08;;;;;;;4.18;2.60;;;;;;;22.52;66.64;99326.97;2070130;28;20136;-53
2022/10/23 04:26:10;;;;;;;3.10;2.65;;;;;;;22.50;66.23;99326.34;2071684;28;20477;-49
2022/10/23 04:27:11;;;;;;;3.33;2.80;;;;;;;22.50;66.55;99323.66;2070447;28;20562;-53
2022/10/23 04:28:13;;;;;;;4.22;2.92;;;;;;;22.48;66.56;99312.22;2071805;28;20294;-48
2022/10/23 04:29:14;;;;;;;5.20;3.25;;;;;;;22.49;66.71;99313.88;2072690;28;20089;-49
2022/10/23 04:30:16;;;;;;;3.97;3.13;;;;;;;22.51;66.64;99314.47;2070590;28;20797;-49
2022/10/23 04:31:16;;;;;;;3.33;2.63;;;;;;;22.51;66.56;99312.63;2071566;28;20048;-48
2022/10/23 04:32:18;;;;;;;5.25;3.05;;;;;;;22.50;66.61;99318.25;2068342;28;20041;-52
2022/10/23 04:33:21;;;;;;;3.88;3.00;;;;;;;22.52;66.53;99325.09;2071555;28;20046;-50
2022/10/23 04:34:22;;;;;;;4.25;3.00;;;;;;;22.50;66.50;99320.94;2071783;28;20053;-52
2022/10/23 04:35:23;;;;;;;2.95;2.75;;;;;;;22.50;66.52;99321.78;2069104;28;20045;-50
2022/10/23 04:36:25;;;;;;;2.90;2.45;;;;;;;22.51;66.47;99322.59;2068523;28;20057;-54
2022/10/23 04:37:27;;;;;;;3.95;2.92;;;;;;;22.51;66.52;99320.75;2072311;28;20507;-52
2022/10/23 04:38:28;;;;;;;4.93;3.08;;;;;;;22.52;66.62;99326.97;2073462;28;20053;-51
2022/10/23 04:39:29;;;;;;;9.15;2.75;;;;;;;22.50;66.61;99321.78;2072716;28;20049;-48
2022/10/23 04:40:31;;;;;;;4.00;2.38;;;;;;;22.51;66.61;99325.28;2072090;28;20749;-52
2022/10/23 04:41:32;;;;;;;6.25;3.03;;;;;;;22.50;66.44;99319.06;2068886;28;20529;-53
2022/10/23 04:42:34;;;;;;;4.95;2.97;;;;;;;22.49;66.56;99320.13;2070272;28;20052;-50
2022/10/23 04:43:35;;;;;;;3.95;3.22;;;;;;;22.50;66.51;99326.34;2065484;28;20057;-51
2022/10/23 04:44:37;;;;;;;5.45;3.20;;;;;;;22.49;66.56;99325.53;2069390;28;20528;-52
2022/10/23 04:45:38;;;;;;;3.75;2.70;;;;;;;22.50;66.47;99324.47;2069394;28;20048;-50
2022/10/23 04:46:40;;;;;;;5.10;3.70;;;;;;;22.50;66.67;99331.75;2071919;28;20179;-47
2022/10/23 04:47:41;;;;;;;4.22;2.80;;;;;;;22.48;66.84;99329.28;2071200;28;20055;-54
2022/10/23 04:48:44;;;;;;;4.85;3.00;;;;;;;22.49;66.55;99325.53;2071284;28;20052;-50
2022/10/23 04:49:45;;;;;;;3.33;2.85;;;;;;;22.47;66.72;99327.59;2071838;28;20056;-51
2022/10/23 04:50:56;;;;;;;4.13;2.95;;;;;;;22.47;66.85;99322.19;2070299;28;20049;-48
2022/10/23 04:51:57;;;;;;;4.90;2.97;;;;;;;22.45;66.84;99332.38;2064461;28;20157;-53
2022/10/23 04:52:58;;;;;;;;;;;;;;;22.35;67.03;99340.13;2070900;28;20092;-52
2022/10/23 04:54:00;;;;;;;3.65;3.20;;;;;;;22.38;66.92;99334.28;2069736;28;19923;-51
2022/10/23 04:55:01;;;;;;;7.15;3.80;;;;;;;22.42;66.83;99338.22;2069687;28;20049;-53
2022/10/23 04:56:03;;;;;;;4.88;3.25;;;;;;;22.45;66.85;99339.66;2072985;28;20067;-54
2022/10/23 04:57:04;;;;;;;3.78;3.05;;;;;;;22.47;66.67;99346.53;2068910;28;20045;-54
2022/10/23 04:58:06;;;;;;;3.22;2.92;;;;;;;22.46;66.58;99346.75;2071200;28;20049;-48
2022/10/23 04:59:06;;;;;;;4.88;3.50;;;;;;;22.48;66.65;99344.66;2071010;28;20087;-54
2022/10/23 05:00:10;;;;;;;3.67;3.15;;;;;;;22.48;66.64;99347.34;2071793;28;20060;-53
2022/10/23 05:01:11;;;;;;;4.53;2.70;;;;;;;22.48;66.55;99348.22;2063705;28;20056;-51
2022/10/23 05:02:13;;;;;;;4.03;3.20;;;;;;;22.48;66.49;99348.22;2071925;28;20434;-56